createdAt,value
2018-04-12T00:01:57.178Z,89.87
2018-04-12T00:04:25.515Z,90.35
2018-04-12T00:06:53.892Z,97.03
2018-04-12T00:09:22.236Z,102.15
2018-04-12T00:11:50.601Z,100.10
2018-04-12T00:14:18.945Z,94.82
2018-04-12T00:16:47.309Z,103.95
2018-04-12T00:19:15.647Z,98.95
2018-04-12T00:21:44.009Z,102.65
2018-04-12T00:24:12.348Z,108.97
2018-04-12T00:26:40.716Z,114.43
2018-04-12T00:29:09.049Z,95.75
2018-04-12T00:31:37.409Z,101.35
2018-04-12T00:34:05.753Z,100.87
2018-04-12T00:36:34.117Z,106.97
2018-04-12T00:39:02.461Z,104.35
2018-04-12T00:41:30.833Z,103.60
2018-04-12T00:43:59.178Z,105.65
2018-04-12T00:46:27.536Z,99.30
2018-04-12T00:48:55.881Z,110.95
2018-04-12T00:51:24.236Z,95.87
2018-04-12T00:54:01.112Z,100.22
2018-04-12T00:56:29.477Z,84.53
2018-04-12T00:58:57.821Z,101.68
2018-04-12T01:01:26.190Z,111.60
2018-04-12T01:03:54.528Z,123.50
2018-04-12T01:06:22.893Z,109.28
2018-04-12T01:08:51.236Z,113.75
2018-04-12T01:11:19.613Z,104.72
2018-04-12T01:13:47.957Z,117.35
2018-04-12T01:16:16.316Z,111.30
2018-04-12T01:18:44.660Z,110.93
2018-04-12T01:21:13.029Z,112.22
2018-04-12T01:23:41.369Z,119.28
2018-04-12T01:26:09.736Z,105.10
2018-04-12T01:28:38.086Z,114.65
2018-04-12T01:31:06.448Z,112.12
2018-04-12T01:33:34.785Z,118.10
2018-04-12T01:36:03.152Z,107.35
2018-04-12T01:38:31.497Z,107.47
2018-04-12T01:40:59.846Z,103.47
2018-04-12T01:43:28.217Z,113.95
2018-04-12T01:45:56.556Z,102.55
2018-04-12T01:48:24.916Z,127.40
2018-04-12T01:50:53.272Z,104.30
2018-04-12T01:53:21.640Z,112.65
2018-04-12T01:55:49.976Z,116.47
2018-04-12T01:58:18.345Z,122.60
2018-04-12T02:00:46.689Z,112.15
2018-04-12T02:03:15.060Z,129.90
2018-04-12T02:05:43.405Z,122.25
2018-04-12T02:08:11.761Z,108.95
2018-04-12T02:10:40.101Z,124.62
2018-04-12T02:13:08.460Z,104.30
2018-04-12T02:15:36.793Z,99.75
2018-04-12T02:18:05.148Z,101.18
2018-04-12T02:20:33.476Z,89.03
2018-04-12T02:23:01.836Z,106.93
2018-04-12T02:25:30.176Z,83.15
2018-04-12T02:27:58.538Z,99.35
2018-04-12T02:30:26.872Z,102.75
2018-04-12T02:32:55.229Z,107.20
2018-04-12T02:35:23.566Z,96.18
2018-04-12T02:37:51.916Z,95.62
2018-04-12T02:40:20.256Z,102.80
2018-04-12T02:42:48.613Z,91.35
2018-04-12T02:45:16.941Z,89.50
2018-04-12T02:47:46.169Z,107.72
2018-04-12T02:50:14.507Z,94.45
2018-04-12T02:52:42.874Z,98.53
2018-04-12T02:55:11.223Z,101.15
2018-04-12T02:57:39.583Z,87.90
2018-04-12T03:00:07.909Z,109.80
2018-04-12T03:02:36.264Z,93.70
2018-04-12T03:05:04.594Z,94.87
2018-04-12T03:07:32.946Z,86.57
2018-04-12T03:10:01.293Z,97.22
2018-04-12T03:12:29.625Z,85.22
2018-04-12T03:14:57.975Z,88.87
2018-04-12T03:17:26.303Z,98.22
2018-04-12T03:19:54.649Z,82.47
2018-04-12T03:22:22.980Z,87.37
2018-04-12T03:24:51.328Z,91.22
2018-04-12T03:27:19.653Z,93.82
2018-04-12T03:29:48.028Z,90.60
2018-04-12T03:32:16.337Z,98.95
2018-04-12T03:34:44.681Z,93.60
2018-04-12T03:37:13.012Z,96.60
2018-04-12T03:39:41.365Z,104.22
2018-04-12T03:42:09.738Z,115.00
2018-04-12T03:44:38.065Z,112.00
2018-04-12T03:47:06.401Z,103.25
2018-04-12T03:49:34.810Z,103.62
2018-04-12T03:52:03.080Z,80.10
2018-04-12T03:54:31.433Z,90.97
2018-04-12T03:56:59.762Z,80.28
2018-04-12T03:59:28.110Z,86.57
2018-04-12T04:01:56.436Z,89.47
2018-04-12T04:04:24.789Z,86.57
2018-04-12T04:06:53.119Z,97.00
2018-04-12T04:09:21.469Z,92.60
2018-04-12T04:11:49.798Z,95.30
2018-04-12T04:14:29.922Z,84.93
2018-04-12T04:17:10.160Z,86.55
2018-04-12T04:19:50.257Z,85.55
2018-04-12T04:22:18.596Z,104.22
2018-04-12T04:24:46.954Z,90.40
2018-04-12T04:27:15.282Z,87.10
2018-04-12T04:29:43.626Z,85.72
2018-04-12T04:32:11.957Z,77.22
2018-04-12T04:34:40.324Z,76.45
2018-04-12T04:37:08.665Z,91.70
2018-04-12T04:39:37.333Z,98.30
2018-04-12T04:42:05.665Z,91.87
2018-04-12T04:44:34.008Z,98.30
2018-04-12T04:47:02.337Z,91.30
2018-04-12T04:49:30.750Z,103.13
2018-04-12T04:51:59.084Z,81.53
2018-04-12T04:54:27.433Z,86.93
2018-04-12T04:56:55.776Z,99.43
2018-04-12T04:59:24.121Z,88.53
2018-04-12T05:01:52.465Z,86.87
2018-04-12T05:04:20.813Z,98.60
2018-04-12T05:06:49.144Z,79.57
2018-04-12T05:09:17.490Z,73.80
2018-04-12T05:11:45.822Z,79.57
2018-04-12T05:14:14.169Z,77.47
2018-04-12T05:16:42.501Z,85.53
2018-04-12T05:19:10.845Z,83.20
2018-04-12T05:21:39.167Z,86.47
2018-04-12T05:24:07.521Z,88.77
2018-04-12T05:26:35.849Z,87.93
2018-04-12T05:29:04.184Z,96.17
2018-04-12T05:31:32.504Z,82.13
2018-04-12T05:34:00.898Z,90.93
2018-04-12T05:36:29.212Z,89.23
2018-04-12T05:38:57.529Z,87.83
2018-04-12T05:41:25.889Z,101.00
2018-04-12T05:43:54.224Z,92.20
2018-04-12T05:46:22.613Z,86.90
2018-04-12T05:48:50.893Z,89.07
2018-04-12T05:51:19.244Z,90.50
2018-04-12T05:53:47.577Z,101.12
2018-04-12T05:56:15.922Z,87.77
2018-04-12T05:58:44.257Z,90.77
2018-04-12T06:01:12.600Z,101.62
2018-04-12T06:03:41.076Z,93.00
2018-04-12T06:06:09.444Z,90.75
2018-04-12T06:08:37.773Z,82.60
2018-04-12T06:11:06.120Z,96.77
2018-04-12T06:13:34.465Z,88.43
2018-04-12T06:16:03.111Z,85.35
2018-04-12T06:18:31.433Z,98.20
2018-04-12T06:20:59.776Z,94.30
2018-04-12T06:23:28.101Z,103.30
2018-04-12T06:25:56.461Z,106.07
2018-04-12T06:28:24.820Z,92.62
2018-04-12T06:30:53.205Z,93.43
2018-04-12T06:33:21.528Z,101.13
2018-04-12T06:35:49.903Z,129.40
2018-04-12T06:38:18.222Z,116.20
2018-04-12T06:40:46.569Z,98.50
2018-04-12T06:43:14.894Z,103.70
2018-04-12T06:45:43.232Z,116.23
2018-04-12T06:48:11.561Z,117.25
2018-04-12T06:50:39.911Z,108.63
2018-04-12T06:53:08.232Z,110.63
2018-04-12T06:55:36.580Z,120.90
2018-04-12T06:58:04.910Z,103.80
2018-04-12T07:00:33.247Z,115.10
2018-04-12T07:03:01.577Z,108.78
2018-04-12T07:05:29.921Z,99.40
2018-04-12T07:07:58.241Z,105.70
2018-04-12T07:10:26.602Z,107.95
2018-04-12T07:12:54.928Z,100.07
2018-04-12T07:15:23.286Z,112.70
2018-04-12T07:17:51.621Z,104.87
2018-04-12T07:20:19.976Z,102.47
2018-04-12T07:22:48.304Z,107.85
2018-04-12T07:25:16.660Z,96.72
2018-04-12T07:27:44.992Z,110.93
2018-04-12T07:30:13.349Z,106.30
2018-04-12T07:32:41.681Z,120.60
2018-04-12T07:35:10.033Z,126.72
2018-04-12T07:37:38.369Z,104.72
2018-04-12T07:40:06.721Z,93.03
2018-04-12T07:42:35.069Z,115.32
2018-04-12T07:45:03.402Z,116.68
2018-04-12T07:47:31.757Z,110.05
2018-04-12T07:50:00.084Z,115.07
2018-04-12T07:52:28.436Z,118.65
2018-04-12T07:54:56.764Z,105.85
2018-04-12T07:57:25.125Z,119.45
2018-04-12T07:59:53.460Z,111.90
2018-04-12T08:02:21.813Z,115.45
2018-04-12T08:04:50.149Z,111.93
2018-04-12T08:07:18.506Z,119.40
2018-04-12T08:09:46.836Z,111.10
2018-04-12T08:12:15.189Z,119.13
2018-04-12T08:14:43.520Z,125.10
2018-04-12T08:17:11.872Z,132.70
2018-04-12T08:19:40.205Z,116.12
2018-04-12T08:22:08.565Z,134.73
2018-04-12T08:24:36.901Z,129.77
2018-04-12T08:27:05.248Z,122.18
2018-04-12T08:29:33.580Z,129.27
2018-04-12T08:32:01.940Z,137.98
2018-04-12T08:34:30.297Z,122.45
2018-04-12T08:36:58.628Z,148.73
2018-04-12T08:39:26.965Z,148.80
2018-04-12T08:41:55.321Z,156.37
2018-04-12T08:44:23.648Z,161.93
2018-04-12T08:46:52.009Z,161.57
2018-04-12T08:49:20.344Z,152.12
2018-04-12T08:51:48.699Z,136.73
2018-04-12T08:54:17.033Z,152.68
2018-04-12T08:56:45.389Z,157.07
2018-04-12T08:59:13.716Z,161.35
2018-04-12T09:01:42.069Z,141.93
2018-04-12T09:04:10.410Z,162.65
2018-04-12T09:06:38.755Z,169.35
2018-04-12T09:09:07.083Z,156.50
2018-04-12T09:11:35.440Z,152.80
2018-04-12T09:14:03.768Z,134.00
2018-04-12T09:16:32.129Z,132.90
2018-04-12T09:19:00.457Z,141.57
2018-04-12T09:21:28.817Z,151.70
2018-04-12T09:23:57.152Z,148.40
2018-04-12T09:26:25.508Z,134.07
2018-04-12T09:28:53.841Z,150.62
2018-04-12T09:31:22.201Z,144.27
2018-04-12T09:33:50.534Z,130.40
2018-04-12T09:36:18.880Z,145.05
2018-04-12T09:38:47.209Z,129.68
2018-04-12T09:41:15.581Z,133.57
2018-04-12T09:43:43.905Z,117.72
2018-04-12T09:46:12.250Z,123.77
2018-04-12T09:48:41.180Z,127.47
2018-04-12T09:51:09.703Z,122.23
2018-04-12T09:53:38.108Z,120.40
2018-04-12T09:56:06.453Z,125.00
2018-04-12T09:58:34.815Z,115.70
2018-04-12T10:01:08.855Z,112.55
2018-04-12T10:03:37.213Z,115.30
2018-04-12T10:06:05.904Z,109.95
2018-04-12T10:08:34.260Z,112.90
2018-04-12T10:11:02.593Z,100.03
2018-04-12T10:13:30.957Z,106.00
2018-04-12T10:15:59.287Z,104.43
2018-04-12T10:18:27.730Z,107.20
2018-04-12T10:20:56.065Z,107.93
2018-04-12T10:23:24.434Z,115.65
2018-04-12T10:25:52.765Z,122.07
2018-04-12T10:28:21.120Z,104.82
2018-04-12T10:30:49.457Z,115.43
2018-04-12T10:33:17.813Z,109.83
2018-04-12T10:35:46.153Z,112.77
2018-04-12T10:38:14.514Z,107.37
2018-04-12T10:40:42.852Z,111.97
2018-04-12T10:43:11.205Z,103.67
2018-04-12T10:45:39.537Z,97.35
2018-04-12T10:48:07.884Z,94.73
2018-04-12T10:50:36.213Z,99.47
2018-04-12T10:53:04.556Z,94.63
2018-04-12T10:55:32.893Z,90.43
2018-04-12T10:58:01.245Z,99.30
2018-04-12T11:00:29.584Z,100.53
2018-04-12T11:02:57.981Z,99.45
2018-04-12T11:05:26.313Z,96.10
2018-04-12T11:07:54.672Z,90.87
2018-04-12T11:10:23.002Z,95.90
2018-04-12T11:12:51.356Z,88.63
2018-04-12T11:15:19.703Z,87.50
2018-04-12T11:17:48.102Z,88.07
2018-04-12T11:20:16.385Z,88.35
2018-04-12T11:22:44.736Z,91.30
2018-04-12T11:25:13.069Z,85.43
2018-04-12T11:27:41.436Z,90.60
2018-04-12T11:30:10.372Z,84.30
2018-04-12T11:32:38.762Z,88.43
2018-04-12T11:35:07.089Z,81.80
2018-04-12T11:37:35.452Z,88.00
2018-04-12T11:40:03.785Z,84.37
2018-04-12T11:42:32.145Z,84.00
2018-04-12T11:45:00.472Z,83.03
2018-04-12T11:47:28.829Z,79.83
2018-04-12T11:49:57.197Z,82.17
2018-04-12T11:52:25.945Z,82.57
2018-04-12T11:54:54.309Z,78.72
2018-04-12T11:57:22.626Z,88.53
2018-04-12T11:59:50.976Z,92.97
2018-04-12T12:02:19.419Z,82.20
2018-04-12T12:04:47.778Z,79.15
2018-04-12T12:07:16.112Z,78.60
2018-04-12T12:09:44.737Z,84.87
2018-04-12T12:12:13.225Z,81.87
2018-04-12T12:14:44.042Z,82.87
2018-04-12T12:17:12.370Z,82.63
2018-04-12T12:19:40.730Z,76.28
2018-04-12T12:22:09.073Z,79.68
2018-04-12T12:24:37.425Z,77.70
2018-04-12T12:27:05.761Z,77.65
2018-04-12T12:29:34.120Z,71.27
2018-04-12T12:32:02.444Z,83.30
2018-04-12T12:34:30.793Z,76.73
2018-04-12T12:36:59.120Z,78.33
2018-04-12T12:39:27.506Z,78.40
2018-04-12T12:41:55.988Z,75.50
2018-04-12T12:44:24.502Z,67.27
2018-04-12T12:46:52.832Z,65.67
2018-04-12T12:49:21.176Z,71.60
2018-04-12T12:51:49.500Z,65.77
2018-04-12T12:54:17.852Z,64.57
2018-04-12T12:56:46.180Z,61.10
2018-04-12T12:59:14.524Z,76.22
2018-04-12T13:01:42.855Z,77.25
2018-04-12T13:04:11.199Z,68.13
2018-04-12T13:06:39.524Z,63.77
2018-04-12T13:09:07.875Z,68.13
2018-04-12T13:11:36.196Z,73.73
2018-04-12T13:14:04.549Z,65.13
2018-04-12T13:16:33.800Z,66.83
2018-04-12T13:19:02.149Z,66.60
2018-04-12T13:21:30.484Z,71.43
2018-04-12T13:23:58.857Z,62.60
2018-04-12T13:26:27.190Z,62.47
2018-04-12T13:28:55.542Z,66.63
2018-04-12T13:31:23.863Z,66.90
2018-04-12T13:33:52.212Z,61.78
2018-04-12T13:36:20.737Z,58.72
2018-04-12T13:38:49.572Z,70.93
2018-04-12T13:41:17.903Z,65.75
2018-04-12T13:43:46.265Z,61.47
2018-04-12T13:46:14.591Z,66.70
2018-04-12T13:48:42.945Z,62.90
2018-04-12T13:51:11.272Z,62.10
2018-04-12T13:53:39.600Z,55.60
2018-04-12T13:56:07.958Z,69.50
2018-04-12T13:58:36.296Z,65.05
2018-04-12T14:01:04.648Z,61.80
2018-04-12T14:03:32.981Z,65.00
2018-04-12T14:06:01.952Z,67.15
2018-04-12T14:08:30.269Z,61.55
2018-04-12T14:10:58.664Z,58.93
2018-04-12T14:13:26.978Z,57.20
2018-04-12T14:15:55.354Z,53.70
2018-04-12T14:18:23.680Z,53.20
2018-04-12T14:20:52.032Z,53.27
2018-04-12T14:23:20.361Z,61.47
2018-04-12T14:25:48.717Z,54.88
2018-04-12T14:28:17.049Z,61.60
2018-04-12T14:30:45.405Z,52.95
2018-04-12T14:33:13.736Z,54.93
2018-04-12T14:35:42.084Z,52.07
2018-04-12T14:38:10.513Z,61.75
2018-04-12T14:40:38.970Z,56.13
2018-04-12T14:43:07.317Z,49.53
2018-04-12T14:45:35.789Z,45.80
2018-04-12T14:48:04.135Z,49.97
2018-04-12T14:50:32.525Z,48.70
2018-04-12T14:53:00.860Z,61.72
2018-04-12T14:55:29.217Z,40.60
2018-04-12T14:57:57.549Z,44.87
2018-04-12T15:00:25.913Z,47.60
2018-04-12T15:02:54.253Z,43.50
2018-04-12T15:05:22.600Z,36.88
2018-04-12T15:07:50.933Z,45.63
2018-04-12T15:10:19.287Z,41.40
2018-04-12T15:12:47.812Z,43.93
2018-04-12T15:15:16.156Z,43.43
2018-04-12T15:17:44.485Z,50.03
2018-04-12T15:20:12.834Z,42.77
2018-04-12T15:22:41.172Z,38.63
2018-04-12T15:25:09.593Z,47.90
2018-04-12T15:27:37.921Z,41.50
2018-04-12T15:30:06.293Z,39.70
2018-04-12T15:32:34.632Z,44.63
2018-04-12T15:35:02.992Z,48.03
2018-04-12T15:37:31.322Z,37.90
2018-04-12T15:39:59.678Z,45.60
2018-04-12T15:42:28.020Z,37.35
2018-04-12T15:44:56.368Z,44.35
2018-04-12T15:47:24.703Z,49.17
2018-04-12T15:49:53.057Z,44.80
2018-04-12T15:52:21.383Z,38.83
2018-04-12T15:54:49.712Z,47.93
2018-04-12T15:57:18.064Z,36.08
2018-04-12T15:59:46.398Z,42.67
2018-04-12T16:02:14.753Z,41.83
2018-04-12T16:04:43.081Z,40.80
2018-04-12T16:07:11.434Z,41.00
2018-04-12T16:09:39.760Z,41.60
2018-04-12T16:12:08.113Z,39.00
2018-04-12T16:14:36.449Z,35.33
2018-04-12T16:17:04.808Z,30.30
2018-04-12T16:19:33.140Z,35.17
2018-04-12T16:22:01.493Z,34.22
2018-04-12T16:24:29.820Z,35.43
2018-04-12T16:26:58.233Z,35.37
2018-04-12T16:29:26.576Z,31.30
2018-04-12T16:31:54.936Z,32.47
2018-04-12T16:34:23.260Z,42.20
2018-04-12T16:36:51.608Z,33.42
2018-04-12T16:39:20.138Z,28.30
2018-04-12T16:41:48.478Z,37.20
2018-04-12T16:44:16.809Z,34.28
2018-04-12T16:46:45.649Z,32.17
2018-04-12T16:49:13.981Z,33.43
2018-04-12T16:51:42.330Z,47.80
2018-04-12T16:54:10.661Z,29.60
2018-04-12T16:56:40.013Z,33.40
2018-04-12T16:59:08.344Z,34.00
2018-04-12T17:01:36.689Z,37.90
2018-04-12T17:04:05.017Z,35.78
2018-04-12T17:06:33.370Z,39.60
2018-04-12T17:09:01.697Z,32.20
2018-04-12T17:11:30.282Z,31.93
2018-04-12T17:13:58.625Z,29.37
2018-04-12T17:16:27.022Z,38.15
2018-04-12T17:18:55.385Z,28.07
2018-04-12T17:21:23.750Z,28.42
2018-04-12T17:23:52.087Z,31.23
2018-04-12T17:26:20.437Z,29.77
2018-04-12T17:28:48.780Z,31.90
2018-04-12T17:31:17.151Z,32.83
2018-04-12T17:33:45.471Z,39.53
2018-04-12T17:36:13.821Z,25.07
2018-04-12T17:38:42.163Z,35.13
2018-04-12T17:41:10.509Z,35.85
2018-04-12T17:43:38.844Z,27.13
2018-04-12T17:46:09.153Z,33.52
2018-04-12T17:48:37.482Z,28.67
2018-04-12T17:51:05.842Z,33.83
2018-04-12T17:53:34.168Z,30.30
2018-04-12T17:56:02.533Z,39.70
2018-04-12T17:58:30.865Z,32.37
2018-04-12T18:00:59.203Z,36.63
2018-04-12T18:03:28.335Z,29.45
2018-04-12T18:05:56.726Z,27.63
2018-04-12T18:08:25.025Z,35.47
2018-04-12T18:10:53.371Z,26.90
2018-04-12T18:13:21.720Z,31.43
2018-04-12T18:15:50.061Z,25.00
2018-04-12T18:18:18.416Z,35.90
2018-04-12T18:20:46.744Z,29.37
2018-04-12T18:23:16.156Z,37.45
2018-04-12T18:25:44.488Z,35.30
2018-04-12T18:28:12.854Z,32.23
2018-04-12T18:30:41.177Z,42.80
2018-04-12T18:33:09.537Z,32.47
2018-04-12T18:35:37.864Z,33.47
2018-04-12T18:38:06.218Z,25.83
2018-04-12T18:40:34.549Z,29.47
2018-04-12T18:43:03.705Z,30.88
2018-04-12T18:45:32.032Z,39.20
2018-04-12T18:48:00.380Z,27.73
2018-04-12T18:50:28.714Z,30.62
2018-04-12T18:52:57.061Z,23.23
2018-04-12T18:55:25.388Z,31.80
2018-04-12T18:57:53.744Z,26.55
2018-04-12T19:00:22.081Z,39.90
2018-04-12T19:02:51.336Z,30.65
2018-04-12T19:05:19.677Z,44.17
2018-04-12T19:07:48.029Z,33.50
2018-04-12T19:10:16.360Z,24.42
2018-04-12T19:12:44.712Z,33.35
2018-04-12T19:15:13.044Z,28.27
2018-04-12T19:17:41.392Z,25.43
2018-04-12T19:20:09.722Z,29.00
2018-04-12T19:22:39.008Z,30.30
2018-04-12T19:25:07.353Z,29.20
2018-04-12T19:27:35.768Z,26.57
2018-04-12T19:30:04.037Z,26.20
2018-04-12T19:32:33.158Z,32.75
2018-04-12T19:35:01.513Z,28.38
2018-04-12T19:37:29.860Z,39.08
2018-04-12T19:39:58.196Z,24.90
2018-04-12T19:42:26.595Z,27.47
2018-04-12T19:44:54.877Z,40.63
2018-04-12T19:47:23.260Z,34.83
2018-04-12T19:49:52.720Z,35.03
2018-04-12T19:52:21.068Z,30.73
2018-04-12T19:54:49.416Z,31.08
2018-04-12T19:57:17.785Z,40.03
2018-04-12T19:59:46.116Z,27.77
2018-04-12T20:02:15.176Z,30.23
2018-04-12T20:04:43.508Z,29.40
2018-04-12T20:07:11.835Z,40.00
2018-04-12T20:09:40.189Z,50.12
2018-04-12T20:12:08.516Z,28.30
2018-04-12T20:14:36.866Z,40.83
2018-04-12T20:17:05.364Z,35.07
2018-04-12T20:19:33.755Z,31.23
2018-04-12T20:22:03.125Z,29.83
2018-04-12T20:24:32.845Z,35.07
2018-04-12T20:27:01.620Z,46.70
2018-04-12T20:29:29.978Z,39.87
2018-04-12T20:31:58.300Z,36.67
2018-04-12T20:34:26.652Z,29.33
2018-04-12T20:36:54.981Z,41.23
2018-04-12T20:39:23.330Z,33.20
2018-04-12T20:41:51.665Z,29.33
2018-04-12T20:44:20.020Z,33.40
2018-04-12T20:46:48.345Z,34.30
2018-04-12T20:49:16.698Z,41.15
2018-04-12T20:51:45.033Z,41.25
2018-04-12T20:54:13.376Z,39.73
2018-04-12T20:56:41.768Z,35.20
2018-04-12T20:59:10.117Z,35.80
2018-04-12T21:01:38.444Z,36.20
2018-04-12T21:04:06.801Z,54.03
2018-04-12T21:06:35.128Z,36.13
2018-04-12T21:09:03.483Z,44.80
2018-04-12T21:11:31.821Z,43.50
2018-04-12T21:14:00.362Z,39.70
2018-04-12T21:16:29.671Z,46.80
2018-04-12T21:18:58.023Z,44.67
2018-04-12T21:21:26.352Z,43.90
2018-04-12T21:23:54.696Z,55.23
2018-04-12T21:26:23.072Z,41.23
2018-04-12T21:28:51.381Z,44.33
2018-04-12T21:31:19.713Z,36.30
2018-04-12T21:33:48.065Z,47.23
2018-04-12T21:36:16.397Z,40.25
2018-04-12T21:38:44.752Z,41.60
2018-04-12T21:41:13.724Z,40.60
2018-04-12T21:43:42.077Z,48.47
2018-04-12T21:46:10.408Z,41.30
2018-04-12T21:48:38.769Z,44.97
2018-04-12T21:51:07.093Z,44.60
2018-04-12T21:53:35.436Z,41.10
2018-04-12T21:56:03.764Z,42.60
2018-04-12T21:58:32.125Z,48.70
2018-04-12T22:01:00.449Z,44.00
2018-04-12T22:03:28.796Z,42.23
2018-04-12T22:05:57.130Z,45.60
2018-04-12T22:08:25.502Z,51.93
2018-04-12T22:10:53.823Z,44.70
2018-04-12T22:13:22.161Z,38.47
2018-04-12T22:15:50.489Z,36.50
2018-04-12T22:18:18.809Z,49.57
2018-04-12T22:20:47.157Z,43.10
2018-04-12T22:23:15.488Z,35.87
2018-04-12T22:25:43.833Z,50.23
2018-04-12T22:28:12.152Z,40.60
2018-04-12T22:30:40.497Z,40.77
2018-04-12T22:33:08.820Z,45.17
2018-04-12T22:35:37.160Z,36.03
2018-04-12T22:38:05.486Z,33.93
2018-04-12T22:40:33.827Z,32.57
2018-04-12T22:43:02.157Z,43.67
2018-04-12T22:45:30.500Z,44.27
2018-04-12T22:47:58.824Z,38.70
2018-04-12T22:50:27.174Z,33.80
2018-04-12T22:52:56.336Z,33.97
2018-04-12T22:55:24.684Z,33.87
2018-04-12T22:57:53.005Z,29.73
2018-04-12T23:00:21.348Z,32.13
2018-04-12T23:02:49.672Z,36.50
2018-04-12T23:05:18.017Z,34.93
2018-04-12T23:07:46.339Z,28.57
2018-04-12T23:10:14.685Z,29.40
2018-04-12T23:12:43.009Z,51.60
2018-04-12T23:15:11.352Z,34.13
2018-04-12T23:17:39.680Z,34.50
2018-04-12T23:20:08.019Z,27.73
2018-04-12T23:22:36.385Z,33.30
2018-04-12T23:25:04.717Z,35.13
2018-04-12T23:27:33.046Z,38.93
2018-04-12T23:30:01.381Z,40.37
2018-04-12T23:32:29.704Z,36.97
2018-04-12T23:34:58.048Z,43.73
2018-04-12T23:37:26.556Z,40.80
2018-04-12T23:39:54.904Z,30.77
2018-04-12T23:42:23.220Z,24.30
2018-04-12T23:44:51.569Z,29.37
2018-04-12T23:47:19.905Z,37.73
2018-04-12T23:49:48.256Z,27.00
2018-04-12T23:52:16.576Z,24.57
2018-04-12T23:54:44.929Z,32.43
2018-04-12T23:57:13.256Z,24.23
2018-04-12T23:59:41.600Z,24.27
